sensor_id;sensor_type;location;lat;lon;timestamp;pressure;altitude;pressure_sealevel;temperature;humidity
80198;BME280;69517;52.030;7.106;2023-10-08T00:02:08;101272.69;;;22.03;90.75
80198;BME280;69517;52.030;7.106;2023-10-08T00:04:35;101278.91;;;22.02;90.56
80198;BME280;69517;52.030;7.106;2023-10-08T00:07:02;101284.38;;;21.99;90.82
80198;BME280;69517;52.030;7.106;2023-10-08T00:09:30;101291.44;;;21.99;90.85
80198;BME280;69517;52.030;7.106;2023-10-08T00:12:00;101301.03;;;22.00;90.75
80198;BME280;69517;52.030;7.106;2023-10-08T00:14:27;101308.25;;;21.96;90.81
80198;BME280;69517;52.030;7.106;2023-10-08T00:16:53;101311.84;;;21.95;91.11
80198;BME280;69517;52.030;7.106;2023-10-08T00:19:20;101311.84;;;21.95;91.17
80198;BME280;69517;52.030;7.106;2023-10-08T00:21:46;101317.13;;;21.95;90.79
80198;BME280;69517;52.030;7.106;2023-10-08T00:24:13;101319.78;;;21.94;91.08
80198;BME280;69517;52.030;7.106;2023-10-08T00:26:41;101308.41;;;21.93;90.97
80198;BME280;69517;52.030;7.106;2023-10-08T00:29:08;101303.16;;;21.93;90.95
80198;BME280;69517;52.030;7.106;2023-10-08T00:31:41;101294.69;;;21.88;91.38
80198;BME280;69517;52.030;7.106;2023-10-08T00:34:10;101299.75;;;21.91;91.13
80198;BME280;69517;52.030;7.106;2023-10-08T00:36:37;101298.91;;;21.91;91.08
80198;BME280;69517;52.030;7.106;2023-10-08T00:39:04;101312.00;;;21.92;90.90
80198;BME280;69517;52.030;7.106;2023-10-08T00:41:34;101319.78;;;21.94;91.12
80198;BME280;69517;52.030;7.106;2023-10-08T00:44:01;101329.47;;;21.93;90.96
80198;BME280;69517;52.030;7.106;2023-10-08T00:46:31;101330.31;;;21.94;90.99
80198;BME280;69517;52.030;7.106;2023-10-08T00:49:01;101333.06;;;21.92;91.14
80198;BME280;69517;52.030;7.106;2023-10-08T00:51:49;101324.50;;;21.89;91.26
80198;BME280;69517;52.030;7.106;2023-10-08T00:54:25;101328.72;;;21.91;90.98
80198;BME280;69517;52.030;7.106;2023-10-08T00:56:53;101328.72;;;21.91;91.07
80198;BME280;69517;52.030;7.106;2023-10-08T00:59:23;101328.81;;;21.90;90.89
80198;BME280;69517;52.030;7.106;2023-10-08T01:01:51;101337.56;;;21.90;91.06
80198;BME280;69517;52.030;7.106;2023-10-08T01:04:17;101355.03;;;21.91;90.94
80198;BME280;69517;52.030;7.106;2023-10-08T01:06:48;101338.53;;;21.89;90.93
80198;BME280;69517;52.030;7.106;2023-10-08T01:09:19;101332.41;;;21.89;91.15
80198;BME280;69517;52.030;7.106;2023-10-08T01:12:06;101345.44;;;21.90;91.16
80198;BME280;69517;52.030;7.106;2023-10-08T01:14:34;101335.88;;;21.89;90.95
80198;BME280;69517;52.030;7.106;2023-10-08T01:17:01;101330.72;;;21.88;91.12
80198;BME280;69517;52.030;7.106;2023-10-08T01:19:30;101324.50;;;21.89;91.05
80198;BME280;69517;52.030;7.106;2023-10-08T01:22:04;101335.13;;;21.87;91.19
80198;BME280;69517;52.030;7.106;2023-10-08T01:24:31;101331.66;;;21.86;90.95
80198;BME280;69517;52.030;7.106;2023-10-08T01:26:59;101336.81;;;21.88;91.07
80198;BME280;69517;52.030;7.106;2023-10-08T01:29:29;101342.81;;;21.90;90.92
80198;BME280;69517;52.030;7.106;2023-10-08T01:31:57;101353.34;;;21.90;90.79
80198;BME280;69517;52.030;7.106;2023-10-08T01:34:23;101331.56;;;21.88;91.08
80198;BME280;69517;52.030;7.106;2023-10-08T01:36:56;101320.09;;;21.89;91.19
80198;BME280;69517;52.030;7.106;2023-10-08T01:39:27;101317.63;;;21.86;91.18
80198;BME280;69517;52.030;7.106;2023-10-08T01:41:57;101347.25;;;21.90;91.07
80198;BME280;69517;52.030;7.106;2023-10-08T01:44:23;101320.91;;;21.90;91.10
80198;BME280;69517;52.030;7.106;2023-10-08T01:46:49;101300.91;;;21.87;90.96
80198;BME280;69517;52.030;7.106;2023-10-08T01:49:16;101277.38;;;21.84;90.92
80198;BME280;69517;52.030;7.106;2023-10-08T01:51:46;101303.53;;;21.87;90.96
80198;BME280;69517;52.030;7.106;2023-10-08T01:54:14;101297.22;;;21.90;90.94
80198;BME280;69517;52.030;7.106;2023-10-08T01:56:44;101291.22;;;21.88;90.80
80198;BME280;69517;52.030;7.106;2023-10-08T01:59:11;101235.09;;;21.87;91.08
80198;BME280;69517;52.030;7.106;2023-10-08T02:01:39;101258.03;;;21.85;91.09
80198;BME280;69517;52.030;7.106;2023-10-08T02:04:06;101292.25;;;21.85;91.20
80198;BME280;69517;52.030;7.106;2023-10-08T02:06:33;101316.63;;;21.89;90.90
80198;BME280;69517;52.030;7.106;2023-10-08T02:08:59;101305.22;;;21.88;90.73
80198;BME280;69517;52.030;7.106;2023-10-08T02:11:31;101325.34;;;21.89;90.94
80198;BME280;69517;52.030;7.106;2023-10-08T02:13:58;101328.00;;;21.89;90.92
80198;BME280;69517;52.030;7.106;2023-10-08T02:16:24;101324.50;;;21.89;90.89
80198;BME280;69517;52.030;7.106;2023-10-08T02:18:52;101301.84;;;21.86;90.79
80198;BME280;69517;52.030;7.106;2023-10-08T02:21:20;101326.38;;;21.86;90.90
80198;BME280;69517;52.030;7.106;2023-10-08T02:23:46;101328.16;;;21.86;90.76
80198;BME280;69517;52.030;7.106;2023-10-08T02:26:13;101321.13;;;21.86;90.99
80198;BME280;69517;52.030;7.106;2023-10-08T02:28:39;101323.53;;;21.90;90.73
80198;BME280;69517;52.030;7.106;2023-10-08T02:31:07;101335.88;;;21.89;90.72
80198;BME280;69517;52.030;7.106;2023-10-08T02:33:33;101345.66;;;21.87;91.03
80198;BME280;69517;52.030;7.106;2023-10-08T02:36:00;101358.81;;;21.87;90.97
80198;BME280;69517;52.030;7.106;2023-10-08T02:38:29;101376.31;;;21.88;90.86
80198;BME280;69517;52.030;7.106;2023-10-08T02:41:02;101373.84;;;21.85;91.02
80198;BME280;69517;52.030;7.106;2023-10-08T02:43:31;101384.22;;;21.88;90.64
80198;BME280;69517;52.030;7.106;2023-10-08T02:45:59;101393.97;;;21.86;90.94
80198;BME280;69517;52.030;7.106;2023-10-08T02:48:26;101405.44;;;21.85;90.95
80198;BME280;69517;52.030;7.106;2023-10-08T02:50:54;101408.06;;;21.85;90.84
80198;BME280;69517;52.030;7.106;2023-10-08T02:53:31;101393.03;;;21.87;90.73
80198;BME280;69517;52.030;7.106;2023-10-08T02:55:58;101385.16;;;21.87;90.63
80198;BME280;69517;52.030;7.106;2023-10-08T02:58:24;101419.38;;;21.87;90.75
80198;BME280;69517;52.030;7.106;2023-10-08T03:00:53;101424.63;;;21.87;90.81
80198;BME280;69517;52.030;7.106;2023-10-08T03:03:19;101410.63;;;21.86;90.70
80198;BME280;69517;52.030;7.106;2023-10-08T03:05:49;101409.78;;;21.86;91.13
80198;BME280;69517;52.030;7.106;2023-10-08T03:08:16;101417.97;;;21.96;90.83
80198;BME280;69517;52.030;7.106;2023-10-08T03:10:46;101411.19;;;21.92;91.06
80198;BME280;69517;52.030;7.106;2023-10-08T03:13:13;101421.78;;;21.90;91.01
80198;BME280;69517;52.030;7.106;2023-10-08T03:15:41;101416.44;;;21.92;90.74
80198;BME280;69517;52.030;7.106;2023-10-08T03:18:11;101389.19;;;21.93;90.53
80198;BME280;69517;52.030;7.106;2023-10-08T03:20:39;101346.97;;;21.94;90.31
80198;BME280;69517;52.030;7.106;2023-10-08T03:23:09;101404.72;;;21.97;90.41
80198;BME280;69517;52.030;7.106;2023-10-08T03:25:50;101354.03;;;21.94;90.50
80198;BME280;69517;52.030;7.106;2023-10-08T03:28:21;101431.06;;;21.97;90.27
80198;BME280;69517;52.030;7.106;2023-10-08T03:30:49;101438.94;;;21.97;90.30
80198;BME280;69517;52.030;7.106;2023-10-08T03:33:16;101440.75;;;21.97;90.43
80198;BME280;69517;52.030;7.106;2023-10-08T03:35:48;101436.31;;;21.97;90.36
80198;BME280;69517;52.030;7.106;2023-10-08T03:38:19;101474.88;;;21.98;90.42
80198;BME280;69517;52.030;7.106;2023-10-08T03:40:53;101432.75;;;21.98;90.25
80198;BME280;69517;52.030;7.106;2023-10-08T03:43:22;101356.66;;;21.94;90.68
80198;BME280;69517;52.030;7.106;2023-10-08T03:45:59;101379.41;;;21.95;90.47
80198;BME280;69517;52.030;7.106;2023-10-08T03:48:30;101455.69;;;21.96;90.38
80198;BME280;69517;52.030;7.106;2023-10-08T03:51:01;101464.34;;;21.98;90.32
80198;BME280;69517;52.030;7.106;2023-10-08T03:53:33;101448.63;;;21.97;90.51
80198;BME280;69517;52.030;7.106;2023-10-08T03:56:07;101411.91;;;21.95;90.54
80198;BME280;69517;52.030;7.106;2023-10-08T03:58:34;101406.75;;;21.92;90.63
80198;BME280;69517;52.030;7.106;2023-10-08T04:01:06;101408.28;;;21.96;90.60
80198;BME280;69517;52.030;7.106;2023-10-08T04:03:35;101424.09;;;21.96;90.30
80198;BME280;69517;52.030;7.106;2023-10-08T04:06:22;101442.44;;;21.98;90.50
80198;BME280;69517;52.030;7.106;2023-10-08T04:08:55;101442.69;;;21.93;90.67
80198;BME280;69517;52.030;7.106;2023-10-08T04:11:41;101434.72;;;21.95;90.79
80198;BME280;69517;52.030;7.106;2023-10-08T04:14:18;101459.41;;;21.92;90.94
80198;BME280;69517;52.030;7.106;2023-10-08T04:16:45;101468.09;;;21.94;90.67
80198;BME280;69517;52.030;7.106;2023-10-08T04:19:12;101463.84;;;21.92;90.76
80198;BME280;69517;52.030;7.106;2023-10-08T04:21:43;101481.34;;;21.93;90.71
80198;BME280;69517;52.030;7.106;2023-10-08T04:24:10;101462.06;;;21.92;90.79
80198;BME280;69517;52.030;7.106;2023-10-08T04:26:39;101466.38;;;21.93;90.39
80198;BME280;69517;52.030;7.106;2023-10-08T04:29:06;101469.88;;;21.94;90.69
80198;BME280;69517;52.030;7.106;2023-10-08T04:31:33;101478.78;;;21.91;90.73
80198;BME280;69517;52.030;7.106;2023-10-08T04:34:08;101491.00;;;21.92;90.58
80198;BME280;69517;52.030;7.106;2023-10-08T04:36:40;101511.13;;;21.93;90.66
80198;BME280;69517;52.030;7.106;2023-10-08T04:39:07;101510.28;;;21.93;90.85
80198;BME280;69517;52.030;7.106;2023-10-08T04:41:39;101501.47;;;21.94;90.62
80198;BME280;69517;52.030;7.106;2023-10-08T04:44:07;101510.22;;;21.94;90.42
80198;BME280;69517;52.030;7.106;2023-10-08T04:46:39;101522.59;;;21.92;90.75
80198;BME280;69517;52.030;7.106;2023-10-08T04:49:17;101545.22;;;21.96;90.46
80198;BME280;69517;52.030;7.106;2023-10-08T04:51:53;101532.22;;;21.93;90.72
80198;BME280;69517;52.030;7.106;2023-10-08T04:54:22;101536.53;;;21.94;90.75
80198;BME280;69517;52.030;7.106;2023-10-08T04:56:49;101551.44;;;21.95;90.82
80198;BME280;69517;52.030;7.106;2023-10-08T04:59:18;101534.25;;;21.88;91.00
80198;BME280;69517;52.030;7.106;2023-10-08T05:01:47;101537.75;;;21.89;91.23
80198;BME280;69517;52.030;7.106;2023-10-08T05:04:14;101540.63;;;21.84;91.33
80198;BME280;69517;52.030;7.106;2023-10-08T05:06:57;101510.56;;;21.88;91.01
80198;BME280;69517;52.030;7.106;2023-10-08T05:09:41;101501.25;;;21.82;90.33
80198;BME280;69517;52.030;7.106;2023-10-08T05:12:18;101494.38;;;21.80;89.81
80198;BME280;69517;52.030;7.106;2023-10-08T05:14:59;101502.09;;;21.83;90.17
80198;BME280;69517;52.030;7.106;2023-10-08T05:17:44;101519.75;;;21.81;90.39
80198;BME280;69517;52.030;7.106;2023-10-08T05:20:23;101527.38;;;21.85;90.49
80198;BME280;69517;52.030;7.106;2023-10-08T05:23:05;101515.06;;;21.86;90.41
80198;BME280;69517;52.030;7.106;2023-10-08T05:25:45;101531.72;;;21.86;90.11
80198;BME280;69517;52.030;7.106;2023-10-08T05:28:24;101542.31;;;21.85;90.47
80198;BME280;69517;52.030;7.106;2023-10-08T05:30:50;101536.22;;;21.84;90.30
80198;BME280;69517;52.030;7.106;2023-10-08T05:33:20;101509.22;;;21.81;89.58
80198;BME280;69517;52.030;7.106;2023-10-08T05:36:09;101526.31;;;21.74;89.29
80198;BME280;69517;52.030;7.106;2023-10-08T05:38:35;101551.00;;;21.71;89.17
80198;BME280;69517;52.030;7.106;2023-10-08T05:41:13;101548.88;;;21.78;89.11
80198;BME280;69517;52.030;7.106;2023-10-08T05:44:05;101561.47;;;21.73;89.30
80198;BME280;69517;52.030;7.106;2023-10-08T05:46:48;101562.31;;;21.73;89.83
80198;BME280;69517;52.030;7.106;2023-10-08T05:49:31;101561.66;;;21.70;89.05
80198;BME280;69517;52.030;7.106;2023-10-08T05:52:19;101577.44;;;21.70;89.02
80198;BME280;69517;52.030;7.106;2023-10-08T05:54:53;101587.03;;;21.71;88.72
80198;BME280;69517;52.030;7.106;2023-10-08T05:57:36;101593.97;;;21.72;89.56
80198;BME280;69517;52.030;7.106;2023-10-08T06:00:07;101582.53;;;21.73;90.02
80198;BME280;69517;52.030;7.106;2023-10-08T06:02:50;101599.16;;;21.73;90.89
80198;BME280;69517;52.030;7.106;2023-10-08T06:05:34;101600.78;;;21.76;91.07
80198;BME280;69517;52.030;7.106;2023-10-08T06:08:08;101598.16;;;21.76;90.84
80198;BME280;69517;52.030;7.106;2023-10-08T06:10:38;101588.56;;;21.75;90.97
80198;BME280;69517;52.030;7.106;2023-10-08T06:13:20;101622.69;;;21.76;91.35
80198;BME280;69517;52.030;7.106;2023-10-08T06:15:56;101636.59;;;21.78;91.17
80198;BME280;69517;52.030;7.106;2023-10-08T06:18:31;101623.63;;;21.75;91.81
80198;BME280;69517;52.030;7.106;2023-10-08T06:20:57;101624.47;;;21.76;91.59
80198;BME280;69517;52.030;7.106;2023-10-08T06:23:24;101623.53;;;21.77;91.63
80198;BME280;69517;52.030;7.106;2023-10-08T06:25:51;101615.72;;;21.75;91.52
80198;BME280;69517;52.030;7.106;2023-10-08T06:28:21;101632.44;;;21.74;91.23
80198;BME280;69517;52.030;7.106;2023-10-08T06:30:51;101635.09;;;21.74;91.53
80198;BME280;69517;52.030;7.106;2023-10-08T06:33:20;101644.00;;;21.72;91.75
80198;BME280;69517;52.030;7.106;2023-10-08T06:35:47;101649.38;;;21.70;91.65
80198;BME280;69517;52.030;7.106;2023-10-08T06:38:26;101637.78;;;21.73;91.51
80198;BME280;69517;52.030;7.106;2023-10-08T06:40:55;101646.81;;;21.69;91.73
80198;BME280;69517;52.030;7.106;2023-10-08T06:43:25;101643.25;;;21.70;89.82
80198;BME280;69517;52.030;7.106;2023-10-08T06:45:51;101651.88;;;21.72;90.12
80198;BME280;69517;52.030;7.106;2023-10-08T06:48:24;101647.47;;;21.72;89.88
80198;BME280;69517;52.030;7.106;2023-10-08T06:50:54;101654.44;;;21.73;90.13
80198;BME280;69517;52.030;7.106;2023-10-08T06:53:22;101661.66;;;21.70;90.31
80198;BME280;69517;52.030;7.106;2023-10-08T06:55:48;101658.19;;;21.69;90.47
80198;BME280;69517;52.030;7.106;2023-10-08T06:58:21;101641.53;;;21.69;90.78
80198;BME280;69517;52.030;7.106;2023-10-08T07:00:48;101621.41;;;21.68;90.94
80198;BME280;69517;52.030;7.106;2023-10-08T07:03:15;101630.16;;;21.68;90.86
80198;BME280;69517;52.030;7.106;2023-10-08T07:05:44;101639.84;;;21.68;90.87
80198;BME280;69517;52.030;7.106;2023-10-08T07:08:19;101652.06;;;21.69;90.66
80198;BME280;69517;52.030;7.106;2023-10-08T07:10:45;101660.75;;;21.71;90.82
80198;BME280;69517;52.030;7.106;2023-10-08T07:13:11;101660.81;;;21.69;90.82
80198;BME280;69517;52.030;7.106;2023-10-08T07:15:42;101635.34;;;21.70;90.49
80198;BME280;69517;52.030;7.106;2023-10-08T07:18:10;101625.56;;;21.72;90.47
80198;BME280;69517;52.030;7.106;2023-10-08T07:20:38;101650.69;;;21.77;90.31
80198;BME280;69517;52.030;7.106;2023-10-08T07:23:07;101662.06;;;21.78;90.30
80198;BME280;69517;52.030;7.106;2023-10-08T07:25:43;101671.50;;;21.82;90.22
80198;BME280;69517;52.030;7.106;2023-10-08T07:28:12;101670.81;;;21.78;90.54
80198;BME280;69517;52.030;7.106;2023-10-08T07:30:38;101694.16;;;21.84;90.15
80198;BME280;69517;52.030;7.106;2023-10-08T07:33:08;101681.13;;;21.83;90.18
80198;BME280;69517;52.030;7.106;2023-10-08T07:35:42;101681.13;;;21.83;90.34
80198;BME280;69517;52.030;7.106;2023-10-08T07:38:17;101682.03;;;21.82;90.33
80198;BME280;69517;52.030;7.106;2023-10-08T07:40:44;101687.38;;;21.80;90.53
80198;BME280;69517;52.030;7.106;2023-10-08T07:43:10;101691.78;;;21.80;90.58
80198;BME280;69517;52.030;7.106;2023-10-08T07:45:37;101708.38;;;21.82;90.21
80198;BME280;69517;52.030;7.106;2023-10-08T07:48:04;101711.94;;;21.81;90.49
80198;BME280;69517;52.030;7.106;2023-10-08T07:50:34;101713.63;;;21.82;90.22
80198;BME280;69517;52.030;7.106;2023-10-08T07:53:03;101698.00;;;21.79;90.42
80198;BME280;69517;52.030;7.106;2023-10-08T07:55:30;101721.53;;;21.82;90.12
80198;BME280;69517;52.030;7.106;2023-10-08T07:57:57;101726.94;;;21.79;90.40
80198;BME280;69517;52.030;7.106;2023-10-08T08:00:23;101725.16;;;21.79;90.39
80198;BME280;69517;52.030;7.106;2023-10-08T08:02:55;101719.06;;;21.79;90.29
80198;BME280;69517;52.030;7.106;2023-10-08T08:05:22;101720.75;;;21.80;90.32
80198;BME280;69517;52.030;7.106;2023-10-08T08:07:50;101752.53;;;21.77;90.45
80198;BME280;69517;52.030;7.106;2023-10-08T08:10:17;101734.78;;;21.80;90.42
80198;BME280;69517;52.030;7.106;2023-10-08T08:12:45;101718.47;;;21.74;90.48
80198;BME280;69517;52.030;7.106;2023-10-08T08:15:11;101719.97;;;21.78;90.38
80198;BME280;69517;52.030;7.106;2023-10-08T08:20:18;101741.75;;;21.81;89.94
80198;BME280;69517;52.030;7.106;2023-10-08T08:22:46;101739.84;;;21.83;90.01
80198;BME280;69517;52.030;7.106;2023-10-08T08:25:19;101732.81;;;21.84;90.08
80198;BME280;69517;52.030;7.106;2023-10-08T08:28:00;101702.06;;;21.84;89.93
80198;BME280;69517;52.030;7.106;2023-10-08T08:30:26;101696.72;;;21.86;89.96
80198;BME280;69517;52.030;7.106;2023-10-08T08:32:52;101710.81;;;21.85;89.81
80198;BME280;69517;52.030;7.106;2023-10-08T08:35:21;101717.84;;;21.84;90.07
80198;BME280;69517;52.030;7.106;2023-10-08T08:37:47;101729.44;;;21.82;90.30
80198;BME280;69517;52.030;7.106;2023-10-08T08:40:17;101734.59;;;21.83;90.13
80198;BME280;69517;52.030;7.106;2023-10-08T08:42:44;101742.41;;;21.85;89.98
80198;BME280;69517;52.030;7.106;2023-10-08T08:45:12;101760.84;;;21.85;90.08
80198;BME280;69517;52.030;7.106;2023-10-08T08:47:40;101777.75;;;21.81;90.23
80198;BME280;69517;52.030;7.106;2023-10-08T08:50:07;101793.34;;;21.84;90.06
80198;BME280;69517;52.030;7.106;2023-10-08T08:52:34;101795.47;;;21.77;90.33
80198;BME280;69517;52.030;7.106;2023-10-08T08:55:02;101786.56;;;21.80;90.12
80198;BME280;69517;52.030;7.106;2023-10-08T08:57:31;101774.34;;;21.79;90.30
80198;BME280;69517;52.030;7.106;2023-10-08T08:59:58;101774.34;;;21.79;89.98
80198;BME280;69517;52.030;7.106;2023-10-08T09:02:26;101776.03;;;21.80;89.85
80198;BME280;69517;52.030;7.106;2023-10-08T09:04:53;101767.47;;;21.76;90.07
80198;BME280;69517;52.030;7.106;2023-10-08T09:07:19;101771.88;;;21.76;89.88
80198;BME280;69517;52.030;7.106;2023-10-08T09:09:46;101764.47;;;21.67;89.91
80198;BME280;69517;52.030;7.106;2023-10-08T09:12:15;101753.59;;;21.73;89.72
80198;BME280;69517;52.030;7.106;2023-10-08T09:14:42;101756.16;;;21.74;89.74
80198;BME280;69517;52.030;7.106;2023-10-08T09:17:09;101759.38;;;21.79;89.59
80198;BME280;69517;52.030;7.106;2023-10-08T09:19:37;101760.16;;;21.81;89.46
80198;BME280;69517;52.030;7.106;2023-10-08T09:22:04;101761.59;;;21.87;89.13
80198;BME280;69517;52.030;7.106;2023-10-08T09:24:31;101761.44;;;21.90;88.72
80198;BME280;69517;52.030;7.106;2023-10-08T09:26:58;101762.06;;;21.95;88.59
80198;BME280;69517;52.030;7.106;2023-10-08T09:29:25;101769.78;;;21.98;88.70
80198;BME280;69517;52.030;7.106;2023-10-08T09:31:52;101766.16;;;22.01;88.93
80198;BME280;69517;52.030;7.106;2023-10-08T09:34:20;101778.47;;;22.00;88.80
80198;BME280;69517;52.030;7.106;2023-10-08T09:36:48;101768.09;;;21.97;89.34
80198;BME280;69517;52.030;7.106;2023-10-08T09:39:17;101764.84;;;21.92;87.95
80198;BME280;69517;52.030;7.106;2023-10-08T09:41:49;101780.13;;;21.85;86.42
80198;BME280;69517;52.030;7.106;2023-10-08T09:44:16;101780.28;;;21.82;85.25
80198;BME280;69517;52.030;7.106;2023-10-08T09:46:44;101781.03;;;21.84;86.22
80198;BME280;69517;52.030;7.106;2023-10-08T09:49:13;101781.91;;;21.85;86.92
80198;BME280;69517;52.030;7.106;2023-10-08T09:51:41;101788.72;;;21.89;87.59
80198;BME280;69517;52.030;7.106;2023-10-08T09:54:11;101785.97;;;21.91;87.13
80198;BME280;69517;52.030;7.106;2023-10-08T09:56:41;101784.19;;;21.91;87.83
80198;BME280;69517;52.030;7.106;2023-10-08T09:59:09;101780.81;;;21.89;87.74
80198;BME280;69517;52.030;7.106;2023-10-08T10:01:35;101780.63;;;21.92;87.55
80198;BME280;69517;52.030;7.106;2023-10-08T10:04:05;101768.41;;;21.91;87.58
80198;BME280;69517;52.030;7.106;2023-10-08T10:06:31;101771.09;;;21.90;88.23
80198;BME280;69517;52.030;7.106;2023-10-08T10:08:57;101778.94;;;21.91;87.13
80198;BME280;69517;52.030;7.106;2023-10-08T10:11:27;101780.97;;;21.86;87.01
80198;BME280;69517;52.030;7.106;2023-10-08T10:13:57;101778.25;;;21.88;87.30
80198;BME280;69517;52.030;7.106;2023-10-08T10:16:25;101788.53;;;21.92;87.36
80198;BME280;69517;52.030;7.106;2023-10-08T10:18:51;101791.03;;;21.95;87.86
80198;BME280;69517;52.030;7.106;2023-10-08T10:21:25;101787.53;;;21.95;88.02
80198;BME280;69517;52.030;7.106;2023-10-08T10:23:52;101792.63;;;21.98;87.82
80198;BME280;69517;52.030;7.106;2023-10-08T10:26:23;101786.38;;;22.00;88.10
80198;BME280;69517;52.030;7.106;2023-10-08T10:31:37;101773.94;;;22.02;88.72
80198;BME280;69517;52.030;7.106;2023-10-08T10:34:04;101770.38;;;22.03;88.28
80198;BME280;69517;52.030;7.106;2023-10-08T10:36:30;101765.13;;;22.03;89.41
80198;BME280;69517;52.030;7.106;2023-10-08T10:38:57;101764.97;;;22.06;89.70
80198;BME280;69517;52.030;7.106;2023-10-08T10:41:23;101777.34;;;22.04;90.17
80198;BME280;69517;52.030;7.106;2023-10-08T10:43:52;101771.66;;;21.96;87.51
80198;BME280;69517;52.030;7.106;2023-10-08T10:46:19;101782.19;;;21.96;89.02
80198;BME280;69517;52.030;7.106;2023-10-08T10:48:57;101789.06;;;22.14;89.62
80198;BME280;69517;52.030;7.106;2023-10-08T10:51:30;101779.16;;;22.19;92.62
80198;BME280;69517;52.030;7.106;2023-10-08T10:53:58;101789.50;;;22.22;91.61
80198;BME280;69517;52.030;7.106;2023-10-08T10:56:32;101798.91;;;22.26;92.65
80198;BME280;69517;52.030;7.106;2023-10-08T10:59:05;101798.84;;;22.28;93.13
80198;BME280;69517;52.030;7.106;2023-10-08T11:01:41;101800.38;;;22.32;94.80
80198;BME280;69517;52.030;7.106;2023-10-08T11:04:13;101798.75;;;22.30;93.81
80198;BME280;69517;52.030;7.106;2023-10-08T11:06:44;101788.88;;;22.33;93.96
80198;BME280;69517;52.030;7.106;2023-10-08T11:09:11;101786.94;;;22.37;92.78
80198;BME280;69517;52.030;7.106;2023-10-08T11:11:41;101789.00;;;22.32;91.94
80198;BME280;69517;52.030;7.106;2023-10-08T11:14:09;101787.56;;;22.26;90.46
80198;BME280;69517;52.030;7.106;2023-10-08T11:16:41;101781.44;;;22.25;91.21
80198;BME280;69517;52.030;7.106;2023-10-08T11:19:08;101771.56;;;22.29;91.65
80198;BME280;69517;52.030;7.106;2023-10-08T11:21:48;101766.28;;;22.29;91.07
80198;BME280;69517;52.030;7.106;2023-10-08T11:24:26;101768.75;;;22.32;90.94
80198;BME280;69517;52.030;7.106;2023-10-08T11:26:53;101769.00;;;22.27;89.40
80198;BME280;69517;52.030;7.106;2023-10-08T11:29:31;101759.75;;;22.20;90.66
80198;BME280;69517;52.030;7.106;2023-10-08T11:31:57;101773.94;;;22.18;87.64
80198;BME280;69517;52.030;7.106;2023-10-08T11:34:30;101766.56;;;22.24;88.99
80198;BME280;69517;52.030;7.106;2023-10-08T11:37:03;101769.19;;;22.24;89.05
80198;BME280;69517;52.030;7.106;2023-10-08T11:39:38;101777.25;;;22.21;88.95
80198;BME280;69517;52.030;7.106;2023-10-08T11:42:10;101780.72;;;22.22;88.89
80198;BME280;69517;52.030;7.106;2023-10-08T11:44:51;101794.94;;;22.19;88.78
80198;BME280;69517;52.030;7.106;2023-10-08T11:47:18;101801.06;;;22.20;88.86
80198;BME280;69517;52.030;7.106;2023-10-08T11:49:46;101785.34;;;22.18;88.89
80198;BME280;69517;52.030;7.106;2023-10-08T11:52:17;101785.34;;;22.18;88.77
80198;BME280;69517;52.030;7.106;2023-10-08T11:54:46;101785.41;;;22.17;88.89
80198;BME280;69517;52.030;7.106;2023-10-08T11:57:13;101776.75;;;22.15;89.09
80198;BME280;69517;52.030;7.106;2023-10-08T11:59:44;101766.97;;;22.17;88.92
80198;BME280;69517;52.030;7.106;2023-10-08T12:02:12;101747.69;;;22.16;88.84
80198;BME280;69517;52.030;7.106;2023-10-08T12:04:41;101751.25;;;22.15;88.99
80198;BME280;69517;52.030;7.106;2023-10-08T12:07:09;101733.75;;;22.14;89.49
80198;BME280;69517;52.030;7.106;2023-10-08T12:09:37;101735.44;;;22.15;89.29
80198;BME280;69517;52.030;7.106;2023-10-08T12:12:06;101729.44;;;22.13;89.37
80198;BME280;69517;52.030;7.106;2023-10-08T12:14:34;101718.78;;;22.15;89.45
80198;BME280;69517;52.030;7.106;2023-10-08T12:17:00;101717.94;;;22.14;89.74
80198;BME280;69517;52.030;7.106;2023-10-08T12:19:36;101716.28;;;22.13;90.30
80198;BME280;69517;52.030;7.106;2023-10-08T12:22:05;101711.84;;;22.14;90.06
80198;BME280;69517;52.030;7.106;2023-10-08T12:24:33;101720.59;;;22.14;90.00
80198;BME280;69517;52.030;7.106;2023-10-08T12:27:01;101703.00;;;22.15;90.17
80198;BME280;69517;52.030;7.106;2023-10-08T12:29:28;101702.91;;;22.16;90.39
80198;BME280;69517;52.030;7.106;2023-10-08T12:31:56;101701.13;;;22.17;90.55
80198;BME280;69517;52.030;7.106;2023-10-08T12:34:24;101695.00;;;22.16;90.66
80198;BME280;69517;52.030;7.106;2023-10-08T12:36:53;101696.78;;;22.16;90.82
80198;BME280;69517;52.030;7.106;2023-10-08T12:39:19;101689.75;;;22.16;90.97
80198;BME280;69517;52.030;7.106;2023-10-08T12:41:50;101694.09;;;22.17;90.86
80198;BME280;69517;52.030;7.106;2023-10-08T12:44:19;101694.84;;;22.19;91.09
80198;BME280;69517;52.030;7.106;2023-10-08T12:46:46;101688.63;;;22.20;91.13
80198;BME280;69517;52.030;7.106;2023-10-08T12:49:13;101681.56;;;22.21;91.38
80198;BME280;69517;52.030;7.106;2023-10-08T12:51:40;101686.00;;;22.20;91.55
80198;BME280;69517;52.030;7.106;2023-10-08T12:54:10;101674.53;;;22.21;91.97
80198;BME280;69517;52.030;7.106;2023-10-08T12:56:39;101670.94;;;22.22;92.07
80198;BME280;69517;52.030;7.106;2023-10-08T12:59:10;101673.78;;;22.19;92.12
80198;BME280;69517;52.030;7.106;2023-10-08T13:01:47;101675.66;;;22.17;92.28
80198;BME280;69517;52.030;7.106;2023-10-08T13:04:16;101667.75;;;22.17;92.03
80198;BME280;69517;52.030;7.106;2023-10-08T13:06:50;101659.00;;;22.17;92.29
80198;BME280;69517;52.030;7.106;2023-10-08T13:09:16;101657.22;;;22.17;92.01
80198;BME280;69517;52.030;7.106;2023-10-08T13:11:43;101659.84;;;22.17;91.81